createdAt,value
2019-04-11T00:02:12.300Z,73.80
2019-04-11T00:06:29.772Z,73.60
2019-04-11T00:10:47.053Z,74.10
2019-04-11T00:15:04.430Z,74.70
2019-04-11T00:19:21.151Z,75.60
2019-04-11T00:23:38.631Z,76.10
2019-04-11T00:27:55.290Z,76.50
2019-04-11T00:32:12.298Z,77.10
2019-04-11T00:36:28.987Z,77.00
2019-04-11T00:40:45.838Z,76.90
2019-04-11T00:45:05.343Z,78.00
2019-04-11T00:49:22.239Z,78.60
2019-04-11T00:53:38.952Z,78.40
2019-04-11T00:57:57.105Z,78.30
2019-04-11T01:02:13.758Z,78.00
2019-04-11T01:06:30.413Z,78.10
2019-04-11T01:10:47.798Z,78.50
2019-04-11T01:15:07.050Z,79.20
2019-04-11T01:19:24.784Z,79.70
2019-04-11T01:23:41.274Z,79.80
2019-04-11T01:27:58.487Z,79.80
2019-04-11T01:32:15.954Z,80.60
2019-04-11T01:36:33.249Z,80.70
2019-04-11T01:40:49.868Z,80.80
2019-04-11T01:45:07.502Z,81.30
2019-04-11T01:49:26.133Z,81.40
2019-04-11T01:53:43.606Z,81.20
2019-04-11T01:58:00.646Z,81.50
2019-04-11T02:02:24.782Z,81.50
2019-04-11T02:06:42.449Z,81.90
2019-04-11T02:10:59.373Z,82.40
2019-04-11T02:15:16.487Z,82.60
2019-04-11T02:19:34.371Z,82.80
2019-04-11T02:24:01.995Z,82.90
2019-04-11T02:28:20.277Z,84.00
2019-04-11T02:32:37.129Z,83.70
2019-04-11T02:36:55.814Z,84.30
2019-04-11T02:41:14.179Z,83.90
2019-04-11T02:45:47.446Z,84.50
2019-04-11T02:49:51.666Z,84.60
2019-04-11T02:54:08.488Z,84.60
2019-04-11T02:58:25.452Z,84.70
2019-04-11T03:02:44.556Z,84.80
2019-04-11T03:07:01.600Z,85.30
2019-04-11T03:11:19.737Z,85.70
2019-04-11T03:15:56.199Z,86.10
2019-04-11T03:20:09.487Z,86.50
2019-04-11T03:24:15.433Z,86.70
2019-04-11T03:28:34.037Z,87.20
2019-04-11T03:37:49.806Z,87.00
2019-04-11T03:41:50.785Z,86.70
2019-04-11T03:46:05.237Z,87.00
2019-04-11T03:50:13.030Z,85.90
2019-04-11T03:54:25.248Z,85.50
2019-04-11T03:58:43.582Z,85.60
2019-04-11T04:03:01.618Z,86.20
2019-04-11T04:07:19.427Z,86.70
2019-04-11T04:11:42.794Z,86.80
2019-04-11T04:16:13.438Z,86.60
2019-04-11T04:20:24.647Z,86.50
2019-04-11T04:24:44.317Z,87.30
2019-04-11T04:29:01.917Z,86.60
2019-04-11T04:33:20.331Z,87.00
2019-04-11T04:37:38.827Z,87.20
2019-04-11T04:42:06.142Z,86.40
2019-04-11T04:46:31.319Z,86.20
2019-04-11T04:50:34.236Z,86.00
2019-04-11T04:54:52.832Z,86.00
2019-04-11T04:59:11.891Z,86.30
2019-04-11T05:03:29.766Z,86.80
2019-04-11T05:07:47.033Z,86.20
2019-04-11T05:12:05.474Z,86.00
2019-04-11T05:16:22.418Z,85.60
2019-04-11T05:20:39.029Z,85.50
2019-04-11T05:24:59.002Z,84.90
2019-04-11T05:29:15.236Z,83.20
2019-04-11T05:33:32.433Z,81.10
2019-04-11T05:37:49.461Z,80.20
2019-04-11T05:42:07.133Z,77.80
2019-04-11T05:46:32.665Z,76.00
2019-04-11T05:50:45.439Z,73.50
2019-04-11T05:55:04.809Z,74.10
2019-04-11T05:59:24.461Z,72.70
2019-04-11T06:03:43.842Z,72.40
2019-04-11T06:08:02.507Z,71.00
2019-04-11T06:12:38.148Z,71.60
2019-04-11T06:16:57.503Z,69.70
2019-04-11T06:21:24.298Z,68.60
2019-04-11T06:25:45.122Z,68.60
2019-04-11T06:30:12.368Z,67.30
2019-04-11T06:34:33.724Z,67.80
2019-04-11T06:39:01.004Z,66.80
2019-04-11T06:43:32.113Z,65.20
2019-04-11T06:47:56.954Z,66.20
2019-04-11T06:52:14.915Z,65.10
2019-04-11T06:56:33.363Z,64.90
2019-04-11T07:00:51.927Z,65.50
2019-04-11T07:05:10.746Z,65.70
2019-04-11T07:09:28.620Z,66.00
2019-04-11T07:13:49.845Z,65.80
2019-04-11T07:18:25.353Z,65.30
2019-04-11T07:23:01.597Z,64.90
2019-04-11T07:27:18.259Z,63.90
2019-04-11T07:31:42.353Z,61.30
2019-04-11T07:36:18.401Z,58.30
2019-04-11T07:40:37.652Z,56.80
2019-04-11T07:45:04.239Z,55.50
2019-04-11T07:49:38.002Z,54.80
2019-04-11T07:53:54.729Z,52.60
2019-04-11T07:58:21.522Z,51.50
2019-04-11T08:02:47.919Z,51.10
2019-04-11T08:07:09.651Z,50.20
2019-04-11T08:11:28.500Z,49.90
2019-04-11T08:16:04.386Z,50.20
2019-04-11T08:20:33.266Z,48.40
2019-04-11T08:25:05.018Z,47.70
2019-04-11T08:29:22.753Z,46.70
2019-04-11T08:33:40.508Z,46.40
2019-04-11T08:38:12.069Z,45.00
2019-04-11T08:42:31.783Z,45.40
2019-04-11T08:46:51.148Z,43.80
2019-04-11T08:51:11.601Z,44.40
2019-04-11T08:55:43.039Z,44.00
2019-04-11T08:59:59.996Z,43.40
2019-04-11T09:04:21.846Z,40.60
2019-04-11T09:08:44.833Z,41.40
2019-04-11T09:13:07.052Z,41.70
2019-04-11T09:17:26.302Z,42.70
2019-04-11T09:21:58.340Z,43.20
2019-04-11T09:26:15.950Z,43.40
2019-04-11T09:30:51.136Z,43.60
2019-04-11T09:35:10.275Z,44.10
2019-04-11T09:39:43.885Z,44.20
2019-04-11T09:44:05.114Z,44.00
2019-04-11T09:48:42.439Z,43.60
2019-04-11T09:52:59.741Z,43.00
2019-04-11T09:57:24.877Z,42.20
2019-04-11T10:02:00.345Z,40.80
2019-04-11T10:06:21.508Z,40.80
2019-04-11T10:10:57.523Z,41.20
2019-04-11T10:15:16.167Z,40.30
2019-04-11T10:19:35.902Z,40.30
2019-04-11T10:23:57.109Z,37.60
2019-04-11T10:28:22.155Z,37.20
2019-04-11T10:32:59.417Z,36.50
2019-04-11T10:37:17.945Z,36.50
2019-04-11T10:41:40.049Z,35.30
2019-04-11T10:46:15.422Z,33.70
2019-04-11T10:50:50.715Z,34.80
2019-04-11T10:55:09.468Z,35.00
2019-04-11T10:59:28.073Z,34.90
2019-04-11T11:03:56.948Z,34.80
2019-04-11T11:08:15.601Z,34.50
2019-04-11T11:12:32.950Z,34.20
2019-04-11T11:17:08.681Z,33.60
2019-04-11T11:21:33.373Z,32.70
2019-04-11T11:25:59.152Z,34.10
2019-04-11T11:30:25.213Z,33.00
2019-04-11T11:34:49.315Z,33.60
2019-04-11T11:39:06.742Z,32.80
2019-04-11T11:43:25.342Z,34.10
2019-04-11T11:47:55.802Z,34.90
2019-04-11T11:52:13.097Z,34.90
2019-04-11T11:56:31.746Z,34.60
2019-04-11T12:00:52.255Z,34.20
2019-04-11T12:05:15.859Z,33.20
2019-04-11T12:09:31.943Z,33.20
2019-04-11T12:14:07.637Z,32.30
2019-04-11T12:18:44.988Z,32.30
2019-04-11T12:22:59.553Z,32.90
2019-04-11T12:27:16.446Z,33.20
2019-04-11T12:31:37.074Z,34.70
2019-04-11T12:36:05.542Z,34.80
2019-04-11T12:40:40.721Z,33.20
2019-04-11T12:45:15.550Z,31.80
2019-04-11T12:49:36.586Z,31.30
2019-04-11T12:53:53.308Z,30.10
2019-04-11T12:58:29.686Z,30.10
2019-04-11T13:02:58.781Z,31.70
2019-04-11T13:07:17.816Z,29.20
2019-04-11T13:11:42.315Z,30.40
2019-04-11T13:16:11.350Z,31.70
2019-04-11T13:20:33.821Z,33.60
2019-04-11T13:24:52.524Z,34.00
2019-04-11T13:29:13.912Z,33.90
2019-04-11T13:33:30.377Z,34.60
2019-04-11T13:38:05.231Z,33.70
2019-04-11T13:42:40.316Z,33.70
2019-04-11T13:47:14.775Z,34.00
2019-04-11T13:51:31.266Z,33.00
2019-04-11T13:55:48.028Z,32.40
2019-04-11T14:00:24.832Z,31.50
2019-04-11T14:04:55.517Z,32.20
2019-04-11T14:09:17.013Z,31.20
2019-04-11T14:13:35.430Z,27.20
2019-04-11T14:17:51.858Z,28.40
2019-04-11T14:22:13.552Z,30.80
2019-04-11T14:26:30.844Z,32.40
2019-04-11T14:31:06.145Z,33.40
2019-04-11T14:35:27.085Z,34.10
2019-04-11T14:40:02.332Z,34.50
2019-04-11T14:44:18.903Z,35.00
2019-04-11T14:48:40.083Z,35.50
2019-04-11T14:53:16.846Z,36.10
2019-04-11T14:57:35.784Z,36.20
2019-04-11T15:02:01.010Z,37.20
2019-04-11T15:06:21.106Z,37.30
2019-04-11T15:10:56.184Z,37.60
2019-04-11T15:15:31.310Z,37.00
2019-04-11T15:19:55.773Z,36.30
2019-04-11T15:24:12.366Z,39.10
2019-04-11T15:28:43.716Z,39.50
2019-04-11T15:33:08.910Z,39.30
2019-04-11T15:37:37.544Z,38.90
2019-04-11T15:42:01.830Z,39.10
2019-04-11T15:46:17.037Z,39.30
2019-04-11T15:50:52.907Z,40.00
2019-04-11T15:55:14.103Z,41.10
2019-04-11T15:59:30.791Z,42.70
2019-04-11T16:03:49.171Z,43.70
2019-04-11T16:08:13.735Z,44.40
2019-04-11T16:12:30.245Z,45.00
2019-04-11T16:17:05.789Z,44.90
2019-04-11T16:25:53.381Z,44.50
2019-04-11T16:30:12.406Z,44.60
2019-04-11T16:34:48.181Z,44.10
2019-04-11T16:39:03.639Z,43.80
2019-04-11T16:43:24.065Z,44.70
2019-04-11T16:47:40.892Z,44.50
2019-04-11T16:51:57.402Z,45.10
2019-04-11T16:56:13.890Z,46.00
2019-04-11T17:00:30.658Z,45.60
2019-04-11T17:04:47.145Z,45.60
2019-04-11T17:09:08.039Z,45.50
2019-04-11T17:13:26.729Z,45.70
2019-04-11T17:17:43.850Z,46.40
2019-04-11T17:22:00.302Z,46.70
2019-04-11T17:26:16.859Z,46.40
2019-04-11T17:30:33.609Z,45.70
2019-04-11T17:34:51.306Z,46.30
2019-04-11T17:39:08.159Z,46.70
2019-04-11T17:43:24.736Z,46.10
2019-04-11T17:47:41.267Z,46.70
2019-04-11T17:51:58.455Z,46.30
2019-04-11T17:56:16.177Z,46.60
2019-04-11T18:00:34.853Z,46.60
2019-04-11T18:04:52.418Z,47.50
2019-04-11T18:09:10.965Z,47.90
2019-04-11T18:13:30.536Z,47.60
2019-04-11T18:17:46.038Z,47.10
2019-04-11T18:22:08.060Z,47.60
2019-04-11T18:26:22.005Z,47.50
2019-04-11T18:30:39.374Z,47.80
2019-04-11T18:34:55.936Z,48.50
2019-04-11T18:39:12.537Z,48.40
2019-04-11T18:43:29.121Z,48.30
2019-04-11T18:47:45.900Z,48.80
2019-04-11T18:52:04.981Z,48.60
2019-04-11T18:56:21.540Z,48.50
2019-04-11T19:00:39.038Z,48.90
2019-04-11T19:04:55.655Z,48.50
2019-04-11T19:09:16.417Z,49.00
2019-04-11T19:13:33.451Z,47.50
2019-04-11T19:18:00.420Z,48.50
2019-04-11T19:22:12.789Z,48.20
2019-04-11T19:26:29.573Z,47.80
2019-04-11T19:30:49.178Z,48.10
2019-04-11T19:35:05.879Z,48.10
2019-04-11T19:39:23.358Z,48.00
2019-04-11T19:43:40.959Z,48.20
2019-04-11T19:47:57.557Z,48.00
2019-04-11T19:52:16.222Z,49.20
2019-04-11T19:56:34.988Z,50.40
2019-04-11T20:00:53.896Z,50.90
2019-04-11T20:05:12.130Z,52.00
2019-04-11T20:09:28.546Z,52.70
2019-04-11T20:13:45.448Z,52.70
2019-04-11T20:18:01.942Z,53.80
2019-04-11T20:22:18.784Z,54.80
2019-04-11T20:26:35.250Z,55.10
2019-04-11T20:30:52.048Z,54.70
2019-04-11T20:35:10.080Z,55.50
2019-04-11T20:39:26.982Z,55.60
2019-04-11T20:43:43.438Z,55.70
2019-04-11T20:48:00.901Z,56.00
2019-04-11T20:52:17.566Z,55.00
2019-04-11T20:56:34.114Z,55.90
2019-04-11T21:00:55.616Z,56.50
2019-04-11T21:05:09.512Z,57.30
2019-04-11T21:09:26.008Z,57.20
2019-04-11T21:13:42.425Z,56.90
2019-04-11T21:17:58.889Z,56.70
2019-04-11T21:22:15.396Z,57.30
2019-04-11T21:26:31.859Z,57.50
2019-04-11T21:30:48.433Z,57.30
2019-04-11T21:35:05.684Z,57.10
2019-04-11T21:39:22.422Z,56.30
2019-04-11T21:43:38.855Z,56.30
2019-04-11T21:47:55.462Z,56.70
2019-04-11T21:52:12.863Z,57.10
2019-04-11T21:56:29.544Z,56.90
2019-04-11T22:00:54.370Z,56.70
2019-04-11T22:05:11.129Z,57.20
2019-04-11T22:09:28.059Z,57.30
2019-04-11T22:13:44.617Z,57.40
2019-04-11T22:18:01.201Z,57.60
2019-04-11T22:22:17.740Z,57.60
2019-04-11T22:26:34.426Z,58.50
2019-04-11T22:30:54.876Z,59.00
2019-04-11T22:35:09.552Z,58.80
2019-04-11T22:39:26.009Z,58.70
2019-04-11T22:43:42.628Z,59.10
2019-04-11T22:47:59.165Z,58.70
2019-04-11T22:52:15.832Z,58.90
2019-04-11T22:56:32.276Z,58.60
2019-04-11T23:00:51.559Z,59.20
2019-04-11T23:05:07.303Z,58.10
2019-04-11T23:09:23.761Z,59.10
2019-04-11T23:13:40.229Z,59.50
2019-04-11T23:17:56.675Z,60.20
2019-04-11T23:22:13.138Z,60.00
2019-04-11T23:26:29.647Z,60.50
2019-04-11T23:30:49.523Z,59.30
2019-04-11T23:35:04.707Z,59.80
2019-04-11T23:39:22.868Z,59.70
2019-04-11T23:43:39.528Z,59.20
2019-04-11T23:47:56.023Z,59.70
2019-04-11T23:52:12.470Z,59.80
2019-04-11T23:56:30.624Z,59.70
